Time;durP1;ratioP1;P1;durP2;ratioP2;P2;SDS_P1;SDS_P2;PMS_P1;PMS_P2;Temp;Humidity;BMP_temperature;BMP_pressure;BME280_temperature;BME280_humidity;BME280_pressure;Samples;Min_cycle;Max_cycle;Signal;HPM_P1;HPM_P2
2023/05/19 00:00:29;;;;;;;12.90;12.20;;;;;;;;;;5028312;28;20033;-61
2023/05/19 00:02:55;;;;;;;12.32;11.73;;;;;;;;;;5027446;28;20505;-61
2023/05/19 00:05:21;;;;;;;12.27;11.68;;;;;;;;;;5030486;28;20056;-61
2023/05/19 00:07:48;;;;;;;12.80;12.15;;;;;;;;;;5021085;28;20112;-61
2023/05/19 00:10:14;;;;;;;12.93;12.23;;;;;;;;;;5029162;28;20510;-60
2023/05/19 00:12:40;;;;;;;13.38;12.68;;;;;;;;;;5017508;28;20037;-61
2023/05/19 00:15:06;;;;;;;13.23;12.52;;;;;;;;;;5026474;28;20028;-62
2023/05/19 00:17:33;;;;;;;12.68;12.02;;;;;;;;;;5032995;28;20037;-61
2023/05/19 00:20:00;;;;;;;12.50;11.90;;;;;;;;;;5030657;28;20644;-60
2023/05/19 00:22:25;;;;;;;13.43;12.73;;;;;;;;;;5029005;28;20029;-60
2023/05/19 00:24:50;;;;;;;14.07;13.27;;;;;;;;;;5024485;28;20037;-60
2023/05/19 00:27:16;;;;;;;12.93;12.23;;;;;;;;;;5025267;28;20393;-61
2023/05/19 00:29:41;;;;;;;12.88;12.23;;;;;;;;;;5028230;28;20037;-61
2023/05/19 00:32:06;;;;;;;12.38;11.77;;;;;;;;;;5031130;28;20053;-61
2023/05/19 00:34:32;;;;;;;13.18;12.48;;;;;;;;;;5038570;28;20051;-60
2023/05/19 00:36:57;;;;;;;12.23;11.63;;;;;;;;;;5036027;28;20100;-62
2023/05/19 00:39:22;;;;;;;12.50;11.90;;;;;;;;;;5040566;28;20097;-61
2023/05/19 00:41:47;;;;;;;12.23;11.63;;;;;;;;;;5030164;28;20036;-61
2023/05/19 00:44:13;;;;;;;13.07;12.38;;;;;;;;;;5030875;28;20021;-61
2023/05/19 00:46:38;;;;;;;13.60;12.90;;;;;;;;;;5030929;28;20124;-61
2023/05/19 00:49:03;;;;;;;13.32;12.63;;;;;;;;;;5034973;28;20032;-60
2023/05/19 00:51:30;;;;;;;12.98;12.27;;;;;;;;;;5026347;28;20096;-61
2023/05/19 00:53:56;;;;;;;12.52;11.93;;;;;;;;;;5035669;28;20143;-61
2023/05/19 00:56:22;;;;;;;12.07;11.48;;;;;;;;;;5031424;28;20120;-61
2023/05/19 00:58:49;;;;;;;12.70;12.10;;;;;;;;;;5031306;28;20026;-61
2023/05/19 01:01:15;;;;;;;12.02;11.43;;;;;;;;;;5029044;28;20013;-61
2023/05/19 01:03:42;;;;;;;13.65;12.88;;;;;;;;;;5019495;28;20052;-60
2023/05/19 01:06:07;;;;;;;12.30;11.70;;;;;;;;;;5032664;28;20053;-60
2023/05/19 01:08:36;;;;;;;12.82;12.13;;;;;;;;;;5030534;28;20060;-60
2023/05/19 01:11:02;;;;;;;13.05;12.35;;;;;;;;;;5029324;28;20109;-61
2023/05/19 01:13:27;;;;;;;12.45;11.85;;;;;;;;;;5020719;28;20109;-62
2023/05/19 01:16:08;;;;;;;12.90;12.20;;;;;;;;;;5027608;28;20029;-62
2023/05/19 01:18:43;;;;;;;13.38;12.65;;;;;;;;;;5028690;28;20018;-61
2023/05/19 01:21:12;;;;;;;12.60;12.00;;;;;;;;;;5026930;28;20044;-61
2023/05/19 01:23:40;;;;;;;12.35;11.75;;;;;;;;;;5024175;28;20033;-61
2023/05/19 01:26:09;;;;;;;12.52;11.93;;;;;;;;;;5019984;28;20029;-60
2023/05/19 01:28:37;;;;;;;13.23;12.52;;;;;;;;;;5031125;28;20026;-61
2023/05/19 01:31:05;;;;;;;12.50;11.90;;;;;;;;;;5031437;28;20030;-61
2023/05/19 01:33:31;;;;;;;12.75;12.05;;;;;;;;;;5032665;28;20038;-60
2023/05/19 01:35:57;;;;;;;12.40;11.80;;;;;;;;;;5022497;28;20052;-61
2023/05/19 01:38:23;;;;;;;12.25;11.65;;;;;;;;;;5029843;28;20099;-61
2023/05/19 01:40:50;;;;;;;13.13;12.43;;;;;;;;;;5029506;28;20022;-61
2023/05/19 01:43:16;;;;;;;12.73;12.13;;;;;;;;;;5032470;28;20021;-60
2023/05/19 01:45:42;;;;;;;12.73;12.02;;;;;;;;;;5032139;28;20039;-61
2023/05/19 01:48:08;;;;;;;12.88;12.18;;;;;;;;;;5027891;28;20040;-61
2023/05/19 01:50:33;;;;;;;13.60;12.82;;;;;;;;;;5027762;28;20026;-61
2023/05/19 01:52:59;;;;;;;12.68;12.02;;;;;;;;;;5031308;28;20026;-61
2023/05/19 01:55:24;;;;;;;12.23;11.63;;;;;;;;;;5036299;28;20377;-61
2023/05/19 01:57:58;;;;;;;12.30;11.70;;;;;;;;;;5033111;28;20049;-61
2023/05/19 02:00:24;;;;;;;;;;;;;;;;;;5033953;28;20017;-60
2023/05/19 02:02:55;;;;;;;12.60;12.00;;;;;;;;;;5040758;28;19934;-61
2023/05/19 02:05:39;;;;;;;12.43;11.82;;;;;;;;;;5032294;28;20354;-60
2023/05/19 02:08:10;;;;;;;12.73;12.07;;;;;;;;;;5033607;28;20480;-61
2023/05/19 02:10:36;;;;;;;13.68;12.90;;;;;;;;;;5035889;28;20443;-61
2023/05/19 02:13:03;;;;;;;13.00;12.30;;;;;;;;;;5032728;28;20037;-60
2023/05/19 02:15:33;;;;;;;12.73;12.07;;;;;;;;;;5037560;28;20029;-60
2023/05/19 02:18:03;;;;;;;12.38;11.77;;;;;;;;;;5024422;28;20048;-60
2023/05/19 02:20:29;;;;;;;12.15;11.55;;;;;;;;;;5036018;28;20025;-60
2023/05/19 02:22:55;;;;;;;12.57;11.98;;;;;;;;;;5025661;28;20474;-61
2023/05/19 02:25:20;;;;;;;12.38;11.77;;;;;;;;;;5032922;28;20045;-61
2023/05/19 02:27:47;;;;;;;12.32;11.73;;;;;;;;;;5032681;28;20025;-61
2023/05/19 02:30:13;;;;;;;12.70;12.02;;;;;;;;;;5032497;28;20025;-61
2023/05/19 02:32:38;;;;;;;13.02;12.32;;;;;;;;;;5024882;28;20037;-61
2023/05/19 02:35:04;;;;;;;12.65;11.95;;;;;;;;;;5032822;28;20024;-60
2023/05/19 02:37:29;;;;;;;13.10;12.40;;;;;;;;;;5033934;28;20032;-60
2023/05/19 02:39:55;;;;;;;12.65;12.05;;;;;;;;;;5034214;28;20025;-62
2023/05/19 02:42:20;;;;;;;12.93;12.23;;;;;;;;;;5026278;28;20129;-61
2023/05/19 02:44:46;;;;;;;12.32;11.73;;;;;;;;;;5027231;28;20033;-62
2023/05/19 02:47:11;;;;;;;12.82;12.13;;;;;;;;;;5037060;28;20048;-61
2023/05/19 02:49:37;;;;;;;13.05;12.35;;;;;;;;;;5036252;28;20550;-62
2023/05/19 02:52:05;;;;;;;13.00;12.30;;;;;;;;;;5026509;28;20120;-60
2023/05/19 02:54:31;;;;;;;12.40;11.80;;;;;;;;;;5030296;28;20081;-61
2023/05/19 02:56:56;;;;;;;12.40;11.80;;;;;;;;;;5031051;28;20113;-60
2023/05/19 02:59:22;;;;;;;12.25;11.65;;;;;;;;;;5032070;28;20029;-61
2023/05/19 03:01:47;;;;;;;12.60;12.00;;;;;;;;;;5033135;28;20025;-61
2023/05/19 03:04:13;;;;;;;13.95;13.15;;;;;;;;;;5035145;28;20097;-61
2023/05/19 03:06:38;;;;;;;14.40;13.57;;;;;;;;;;5028939;28;20543;-61
2023/05/19 03:09:04;;;;;;;13.40;12.70;;;;;;;;;;5032445;28;20030;-60
2023/05/19 03:11:30;;;;;;;14.10;13.30;;;;;;;;;;5034893;28;20045;-61
2023/05/19 03:13:55;;;;;;;12.90;12.23;;;;;;;;;;5032429;28;20543;-61
2023/05/19 03:16:20;;;;;;;13.40;12.70;;;;;;;;;;5034636;28;20017;-61
2023/05/19 03:18:46;;;;;;;12.57;11.98;;;;;;;;;;5031375;28;20080;-60
2023/05/19 03:21:13;;;;;;;12.50;11.90;;;;;;;;;;5029999;28;20028;-61
2023/05/19 03:23:38;;;;;;;12.68;12.05;;;;;;;;;;5028182;28;20053;-62
2023/05/19 03:26:04;;;;;;;12.93;12.23;;;;;;;;;;5030807;28;20492;-60
2023/05/19 03:28:29;;;;;;;13.90;13.10;;;;;;;;;;5029522;28;20028;-61
2023/05/19 03:30:55;;;;;;;12.05;11.45;;;;;;;;;;5028466;28;20028;-61
2023/05/19 03:33:20;;;;;;;12.77;12.07;;;;;;;;;;5019890;28;20026;-61
2023/05/19 03:35:45;;;;;;;12.88;12.18;;;;;;;;;;5032068;28;20022;-61
2023/05/19 03:38:11;;;;;;;12.90;12.20;;;;;;;;;;5028204;28;20022;-61
2023/05/19 03:40:36;;;;;;;13.90;13.10;;;;;;;;;;5026335;28;20449;-61
2023/05/19 03:43:01;;;;;;;12.88;12.18;;;;;;;;;;5023604;28;20242;-60
2023/05/19 03:45:27;;;;;;;12.68;12.05;;;;;;;;;;5033510;28;20543;-61
2023/05/19 03:47:52;;;;;;;12.50;11.90;;;;;;;;;;5028577;28;20120;-60
2023/05/19 03:50:18;;;;;;;12.75;12.13;;;;;;;;;;5025227;28;20108;-60
2023/05/19 03:52:45;;;;;;;12.88;12.20;;;;;;;;;;5023680;28;20029;-61
2023/05/19 03:55:10;;;;;;;13.27;12.57;;;;;;;;;;5031151;28;20024;-61
2023/05/19 03:57:36;;;;;;;13.82;13.02;;;;;;;;;;5030935;28;20108;-62
2023/05/19 04:00:02;;;;;;;13.45;12.73;;;;;;;;;;5032209;28;20056;-60
2023/05/19 04:02:28;;;;;;;13.43;12.73;;;;;;;;;;5029498;28;20021;-62
2023/05/19 04:04:53;;;;;;;12.85;12.15;;;;;;;;;;5028995;28;20052;-62
2023/05/19 04:07:18;;;;;;;14.25;13.45;;;;;;;;;;5029332;28;20120;-62
2023/05/19 04:09:44;;;;;;;12.90;12.25;;;;;;;;;;5032334;28;20123;-61
2023/05/19 04:12:09;;;;;;;13.25;12.55;;;;;;;;;;5033379;28;20080;-62
2023/05/19 04:14:35;;;;;;;13.27;12.57;;;;;;;;;;5034726;28;20022;-62
2023/05/19 04:17:00;;;;;;;12.40;11.80;;;;;;;;;;5030192;28;20013;-62
2023/05/19 04:19:25;;;;;;;13.80;13.00;;;;;;;;;;5033383;28;20032;-62
2023/05/19 04:21:50;;;;;;;13.38;12.68;;;;;;;;;;5027693;28;20487;-62
2023/05/19 04:24:16;;;;;;;13.10;12.40;;;;;;;;;;5030893;28;20029;-61
2023/05/19 04:26:44;;;;;;;13.07;12.38;;;;;;;;;;5023004;28;20060;-61
2023/05/19 04:29:12;;;;;;;13.13;12.43;;;;;;;;;;5021333;28;20371;-59
2023/05/19 04:31:39;;;;;;;12.75;12.05;;;;;;;;;;5031256;28;20053;-61
2023/05/19 04:34:06;;;;;;;13.32;12.63;;;;;;;;;;5027319;28;20025;-62
2023/05/19 04:36:32;;;;;;;12.80;12.20;;;;;;;;;;5028931;28;20041;-60
2023/05/19 04:39:01;;;;;;;13.23;12.52;;;;;;;;;;5027658;28;20025;-60
2023/05/19 04:41:26;;;;;;;13.18;12.48;;;;;;;;;;5027506;28;20079;-63
2023/05/19 04:43:51;;;;;;;12.95;12.25;;;;;;;;;;5026105;28;20033;-61
2023/05/19 04:46:17;;;;;;;13.48;12.77;;;;;;;;;;5024658;28;20087;-61
2023/05/19 04:48:42;;;;;;;13.57;12.88;;;;;;;;;;5022700;28;20112;-60
2023/05/19 04:51:08;;;;;;;13.07;12.38;;;;;;;;;;5027636;28;20033;-60
2023/05/19 04:53:33;;;;;;;13.10;12.43;;;;;;;;;;5024701;28;20022;-62
2023/05/19 04:56:01;;;;;;;12.57;11.98;;;;;;;;;;5021264;28;20046;-61
2023/05/19 04:58:26;;;;;;;13.13;12.43;;;;;;;;;;5023900;28;20060;-61
2023/05/19 05:00:54;;;;;;;15.13;14.20;;;;;;;;;;5021393;28;20112;-60
2023/05/19 05:03:21;;;;;;;12.93;12.23;;;;;;;;;;5029207;28;20068;-61
2023/05/19 05:05:47;;;;;;;13.50;12.80;;;;;;;;;;5024156;28;20033;-61
2023/05/19 05:08:14;;;;;;;13.15;12.45;;;;;;;;;;5026639;28;20120;-61
2023/05/19 05:10:40;;;;;;;13.38;12.68;;;;;;;;;;5024980;28;20042;-62
2023/05/19 05:13:05;;;;;;;12.23;11.63;;;;;;;;;;5026762;28;20082;-60
2023/05/19 05:15:31;;;;;;;13.45;12.75;;;;;;;;;;5023867;28;20025;-60
2023/05/19 05:17:56;;;;;;;12.80;12.20;;;;;;;;;;5020180;28;20026;-60
2023/05/19 05:20:22;;;;;;;13.55;12.85;;;;;;;;;;5025034;28;20036;-61
2023/05/19 05:22:47;;;;;;;12.30;11.70;;;;;;;;;;5025184;28;20025;-61
2023/05/19 05:25:13;;;;;;;13.63;12.88;;;;;;;;;;5030224;28;20062;-61
2023/05/19 05:27:38;;;;;;;13.40;12.70;;;;;;;;;;5029827;28;20084;-62
2023/05/19 05:30:04;;;;;;;13.30;12.60;;;;;;;;;;5032826;28;20053;-62
2023/05/19 05:32:29;;;;;;;14.05;13.25;;;;;;;;;;5031843;28;20018;-61
2023/05/19 05:34:55;;;;;;;13.10;12.40;;;;;;;;;;5031077;28;20018;-62
2023/05/19 05:37:20;;;;;;;13.07;12.38;;;;;;;;;;5030102;28;20030;-61
2023/05/19 05:39:45;;;;;;;12.95;12.27;;;;;;;;;;5027043;28;20013;-62
2023/05/19 05:42:11;;;;;;;12.82;12.23;;;;;;;;;;5034894;28;20053;-61
2023/05/19 05:44:36;;;;;;;13.15;12.45;;;;;;;;;;5031730;28;20103;-60
2023/05/19 05:47:02;;;;;;;12.90;12.27;;;;;;;;;;5029057;28;20045;-62
2023/05/19 05:49:27;;;;;;;13.13;12.43;;;;;;;;;;5021455;28;20047;-61
2023/05/19 05:51:53;;;;;;;12.00;11.45;;;;;;;;;;5029566;28;20076;-61
2023/05/19 05:54:20;;;;;;;14.25;13.45;;;;;;;;;;5024197;28;20022;-61
2023/05/19 05:56:46;;;;;;;13.25;12.55;;;;;;;;;;5025281;28;20025;-62
2023/05/19 05:59:11;;;;;;;12.48;11.88;;;;;;;;;;5027438;28;20029;-63
2023/05/19 06:01:37;;;;;;;13.45;12.75;;;;;;;;;;5029257;28;20075;-62
2023/05/19 06:04:02;;;;;;;14.05;13.25;;;;;;;;;;5018677;28;20057;-62
2023/05/19 06:06:27;;;;;;;15.00;14.10;;;;;;;;;;5024251;28;20112;-63
2023/05/19 06:08:53;;;;;;;13.45;12.75;;;;;;;;;;5015631;28;20116;-62
2023/05/19 06:11:18;;;;;;;12.38;11.77;;;;;;;;;;5020907;28;20039;-64
2023/05/19 06:13:43;;;;;;;13.02;12.32;;;;;;;;;;5019366;28;20039;-65
2023/05/19 06:16:09;;;;;;;14.25;13.45;;;;;;;;;;5018384;28;20053;-66
2023/05/19 06:18:34;;;;;;;14.77;13.98;;;;;;;;;;5023219;28;20041;-65
2023/05/19 06:21:00;;;;;;;12.68;12.07;;;;;;;;;;5027110;28;20381;-66
2023/05/19 06:23:27;;;;;;;12.60;12.00;;;;;;;;;;5034386;28;20100;-66
2023/05/19 06:25:53;;;;;;;13.63;12.93;;;;;;;;;;5036378;28;20033;-66
2023/05/19 06:28:18;;;;;;;14.82;14.02;;;;;;;;;;5040024;28;20560;-66
2023/05/19 06:30:44;;;;;;;13.38;12.68;;;;;;;;;;5028143;28;20025;-66
2023/05/19 06:33:09;;;;;;;13.48;12.77;;;;;;;;;;5047067;28;20017;-67
2023/05/19 06:35:34;;;;;;;13.40;12.70;;;;;;;;;;5038258;28;20020;-66
2023/05/19 06:38:00;;;;;;;13.98;13.27;;;;;;;;;;5039910;28;20063;-65
2023/05/19 06:40:25;;;;;;;13.40;12.70;;;;;;;;;;5029532;28;20014;-66
2023/05/19 06:42:50;;;;;;;13.35;12.65;;;;;;;;;;5031725;28;20389;-67
2023/05/19 06:45:20;;;;;;;12.85;12.25;;;;;;;;;;5033805;28;20017;-65
2023/05/19 06:47:46;;;;;;;13.00;12.40;;;;;;;;;;5033043;28;20025;-65
2023/05/19 06:50:11;;;;;;;13.85;13.15;;;;;;;;;;5031918;28;20026;-66
2023/05/19 06:52:36;;;;;;;13.27;12.63;;;;;;;;;;5032606;28;20040;-65
2023/05/19 06:55:02;;;;;;;14.32;13.63;;;;;;;;;;5031102;28;20069;-65
2023/05/19 06:57:27;;;;;;;12.52;11.93;;;;;;;;;;5036678;28;20013;-66
2023/05/19 06:59:52;;;;;;;12.88;12.27;;;;;;;;;;5034388;28;20040;-65
2023/05/19 07:02:18;;;;;;;12.90;12.30;;;;;;;;;;5030339;28;20032;-65
2023/05/19 07:04:43;;;;;;;13.27;12.68;;;;;;;;;;5034310;28;20041;-66
2023/05/19 07:07:08;;;;;;;12.40;11.80;;;;;;;;;;5036054;28;20032;-66
2023/05/19 07:09:34;;;;;;;13.13;12.52;;;;;;;;;;5032531;28;20013;-65
2023/05/19 07:12:00;;;;;;;13.40;12.80;;;;;;;;;;5031502;28;20024;-65
2023/05/19 07:14:25;;;;;;;11.95;11.45;;;;;;;;;;5032501;28;20057;-65
2023/05/19 07:16:50;;;;;;;12.10;11.52;;;;;;;;;;5032158;28;20041;-65
2023/05/19 07:19:18;;;;;;;12.15;11.57;;;;;;;;;;5031045;28;20551;-65
2023/05/19 07:21:43;;;;;;;13.05;12.45;;;;;;;;;;5019900;28;20029;-66
2023/05/19 07:24:09;;;;;;;12.60;12.00;;;;;;;;;;5032582;28;20017;-66
2023/05/19 07:26:34;;;;;;;12.82;12.23;;;;;;;;;;5031662;28;20072;-65
2023/05/19 07:28:59;;;;;;;12.70;12.10;;;;;;;;;;5032370;28;20109;-65
2023/05/19 07:31:25;;;;;;;12.52;11.93;;;;;;;;;;5031794;28;20243;-65
2023/05/19 07:33:50;;;;;;;12.20;11.60;;;;;;;;;;5032243;28;20100;-66
2023/05/19 07:36:15;;;;;;;12.00;11.50;;;;;;;;;;5030785;28;20014;-66
2023/05/19 07:38:41;;;;;;;12.38;11.77;;;;;;;;;;5032355;28;20017;-66
2023/05/19 07:41:06;;;;;;;12.25;11.65;;;;;;;;;;5031846;28;20033;-65
2023/05/19 07:43:31;;;;;;;12.50;11.90;;;;;;;;;;5032876;28;20472;-66
2023/05/19 07:45:57;;;;;;;12.30;11.70;;;;;;;;;;5034699;28;20036;-65
2023/05/19 07:48:24;;;;;;;12.75;12.15;;;;;;;;;;5031275;28;20022;-64
2023/05/19 07:50:49;;;;;;;12.45;11.85;;;;;;;;;;5031679;28;20457;-64
2023/05/19 07:53:15;;;;;;;12.75;12.15;;;;;;;;;;5031862;28;20060;-65
2023/05/19 07:55:40;;;;;;;13.52;12.85;;;;;;;;;;5031854;28;20060;-65
2023/05/19 07:58:06;;;;;;;12.30;11.70;;;;;;;;;;5032820;28;20021;-65
2023/05/19 08:00:31;;;;;;;12.98;12.38;;;;;;;;;;5031106;28;20327;-65
2023/05/19 08:02:58;;;;;;;12.55;11.95;;;;;;;;;;5031300;28;20029;-65
2023/05/19 08:05:28;;;;;;;12.27;11.68;;;;;;;;;;5032751;28;20014;-65
2023/05/19 08:07:53;;;;;;;12.00;11.45;;;;;;;;;;5031754;28;20025;-66
2023/05/19 08:10:19;;;;;;;11.80;11.30;;;;;;;;;;5031642;28;20025;-65
2023/05/19 08:12:44;;;;;;;12.80;12.20;;;;;;;;;;5031723;28;20021;-65
2023/05/19 08:15:12;;;;;;;12.50;11.90;;;;;;;;;;5031543;28;20025;-66
2023/05/19 08:17:38;;;;;;;12.57;11.98;;;;;;;;;;5031232;28;20025;-66
2023/05/19 08:20:05;;;;;;;12.55;11.95;;;;;;;;;;5028880;28;20025;-65
2023/05/19 08:22:30;;;;;;;13.02;12.43;;;;;;;;;;5031314;28;20030;-66
2023/05/19 08:24:55;;;;;;;12.50;11.90;;;;;;;;;;5031296;28;20018;-65
2023/05/19 08:27:21;;;;;;;13.25;12.65;;;;;;;;;;5031189;28;20040;-65
2023/05/19 08:29:46;;;;;;;13.30;12.68;;;;;;;;;;5022552;28;20022;-65
2023/05/19 08:32:11;;;;;;;13.18;12.57;;;;;;;;;;5040858;28;20112;-65
2023/05/19 08:34:37;;;;;;;12.40;11.80;;;;;;;;;;5030413;28;20014;-66
2023/05/19 08:37:02;;;;;;;12.40;11.80;;;;;;;;;;5033152;28;20065;-66
2023/05/19 08:39:27;;;;;;;12.80;12.20;;;;;;;;;;5042319;28;20091;-66
2023/05/19 08:41:53;;;;;;;12.30;11.70;;;;;;;;;;5032271;28;20014;-64
2023/05/19 08:44:19;;;;;;;12.77;12.18;;;;;;;;;;5032559;28;20473;-65
2023/05/19 08:46:46;;;;;;;12.73;12.13;;;;;;;;;;5039791;28;20025;-68
2023/05/19 08:49:15;;;;;;;12.82;12.23;;;;;;;;;;5030480;28;20024;-66
2023/05/19 08:51:43;;;;;;;13.25;12.65;;;;;;;;;;5029873;28;20546;-66
2023/05/19 08:54:19;;;;;;;12.70;12.10;;;;;;;;;;5030334;28;20017;-65
2023/05/19 08:56:45;;;;;;;12.27;11.68;;;;;;;;;;5023204;28;20096;-65
2023/05/19 08:59:12;;;;;;;12.95;12.35;;;;;;;;;;5026325;28;20541;-66
2023/05/19 09:01:38;;;;;;;12.57;11.98;;;;;;;;;;5039019;28;20013;-66
2023/05/19 09:04:04;;;;;;;13.55;12.85;;;;;;;;;;5032676;28;20099;-65
2023/05/19 09:06:31;;;;;;;12.73;12.13;;;;;;;;;;5032711;28;20029;-64
2023/05/19 09:08:56;;;;;;;12.60;12.00;;;;;;;;;;5034424;28;20024;-64
2023/05/19 09:11:21;;;;;;;12.52;11.93;;;;;;;;;;5035560;28;20025;-66
2023/05/19 09:13:48;;;;;;;12.38;11.77;;;;;;;;;;5031940;28;20029;-65
2023/05/19 09:16:13;;;;;;;12.10;11.55;;;;;;;;;;5031649;28;20026;-66
2023/05/19 09:18:39;;;;;;;12.50;11.90;;;;;;;;;;5031854;28;20043;-65
2023/05/19 09:21:06;;;;;;;12.80;12.20;;;;;;;;;;5030515;28;20251;-65
2023/05/19 09:23:32;;;;;;;12.80;12.20;;;;;;;;;;5029546;28;20014;-66
2023/05/19 09:26:00;;;;;;;12.45;11.85;;;;;;;;;;5029696;28;20100;-65
2023/05/19 09:28:26;;;;;;;13.07;12.48;;;;;;;;;;5023247;28;20021;-65
2023/05/19 09:30:57;;;;;;;12.57;11.98;;;;;;;;;;5030401;28;20508;-65
2023/05/19 09:33:22;;;;;;;12.88;12.27;;;;;;;;;;5030217;28;20049;-65
2023/05/19 09:35:48;;;;;;;12.95;12.35;;;;;;;;;;5029667;28;20041;-65
2023/05/19 09:38:16;;;;;;;12.85;12.25;;;;;;;;;;5029946;28;20025;-65
2023/05/19 09:40:42;;;;;;;13.02;12.43;;;;;;;;;;5026569;28;20046;-67
2023/05/19 09:43:07;;;;;;;13.10;12.50;;;;;;;;;;5032053;28;20024;-65
2023/05/19 09:45:32;;;;;;;13.02;12.43;;;;;;;;;;5037236;28;20021;-66
2023/05/19 09:48:03;;;;;;;12.40;11.80;;;;;;;;;;5029764;28;20040;-66
2023/05/19 09:50:29;;;;;;;12.80;12.20;;;;;;;;;;5029839;28;20074;-66
2023/05/19 09:52:55;;;;;;;12.50;11.90;;;;;;;;;;5028474;28;20155;-65
2023/05/19 09:55:24;;;;;;;12.48;11.88;;;;;;;;;;5033375;28;20017;-65
2023/05/19 09:57:51;;;;;;;12.60;12.00;;;;;;;;;;5029626;28;20474;-66
2023/05/19 10:00:17;;;;;;;12.80;12.20;;;;;;;;;;5034976;28;20420;-64
2023/05/19 10:02:43;;;;;;;12.88;12.27;;;;;;;;;;5023607;28;20037;-65
2023/05/19 10:05:12;;;;;;;14.40;13.65;;;;;;;;;;5023363;28;20105;-65
2023/05/19 10:07:39;;;;;;;12.60;12.00;;;;;;;;;;5029587;28;20365;-65
2023/05/19 10:10:07;;;;;;;13.57;12.88;;;;;;;;;;5031002;28;20032;-65
2023/05/19 10:12:33;;;;;;;12.55;11.95;;;;;;;;;;5038748;28;20075;-66
2023/05/19 10:14:58;;;;;;;12.45;11.85;;;;;;;;;;5033112;28;21144;-65
2023/05/19 10:17:24;;;;;;;12.75;12.05;;;;;;;;;;5033033;28;20025;-66
2023/05/19 10:19:49;;;;;;;13.48;12.77;;;;;;;;;;5030239;28;20028;-65
2023/05/19 10:22:15;;;;;;;13.32;12.63;;;;;;;;;;5026463;28;20017;-65
2023/05/19 10:24:40;;;;;;;13.43;12.73;;;;;;;;;;5032876;28;20021;-66
2023/05/19 10:27:08;;;;;;;12.13;11.52;;;;;;;;;;5033531;28;20096;-66
2023/05/19 10:29:36;;;;;;;12.45;11.85;;;;;;;;;;5030281;28;20392;-65
2023/05/19 10:32:05;;;;;;;13.40;12.70;;;;;;;;;;5027053;28;20014;-65
2023/05/19 10:34:49;;;;;;;13.60;12.90;;;;;;;;;;5031040;28;20053;-65
2023/05/19 10:37:14;;;;;;;12.80;12.20;;;;;;;;;;5026238;28;20018;-65
2023/05/19 10:39:41;;;;;;;12.80;12.20;;;;;;;;;;5037476;28;20052;-65
2023/05/19 10:42:12;;;;;;;12.98;12.38;;;;;;;;;;5039217;28;20250;-64
2023/05/19 10:44:40;;;;;;;14.05;13.35;;;;;;;;;;5032058;28;20526;-64
2023/05/19 10:47:07;;;;;;;12.65;12.05;;;;;;;;;;5037850;28;20036;-65
2023/05/19 10:49:35;;;;;;;12.60;12.00;;;;;;;;;;5033016;28;20025;-64
2023/05/19 10:52:00;;;;;;;12.80;12.20;;;;;;;;;;5030753;28;20018;-66
2023/05/19 10:54:39;;;;;;;12.50;11.90;;;;;;;;;;5031545;28;20064;-66
2023/05/19 10:57:05;;;;;;;13.02;12.43;;;;;;;;;;5037789;28;20041;-64
2023/05/19 10:59:32;;;;;;;13.45;12.75;;;;;;;;;;5025903;28;20093;-65
2023/05/19 11:02:01;;;;;;;13.68;12.98;;;;;;;;;;5029771;28;20022;-65
2023/05/19 11:04:47;;;;;;;12.63;12.02;;;;;;;;;;5032346;28;20160;-65
2023/05/19 11:07:20;;;;;;;13.77;13.07;;;;;;;;;;5031728;28;20061;-66
2023/05/19 11:09:52;;;;;;;12.93;12.32;;;;;;;;;;5030269;28;20031;-66
2023/05/19 11:12:21;;;;;;;12.77;12.18;;;;;;;;;;5032824;28;20067;-66
2023/05/19 11:14:47;;;;;;;12.70;12.10;;;;;;;;;;5032441;28;20022;-65
2023/05/19 11:17:14;;;;;;;12.77;12.18;;;;;;;;;;5032887;28;20020;-66
2023/05/19 11:19:50;;;;;;;13.15;12.50;;;;;;;;;;5024874;28;20489;-65
2023/05/19 11:22:15;;;;;;;13.18;12.52;;;;;;;;;;5040812;28;20025;-65
2023/05/19 11:24:48;;;;;;;13.05;12.40;;;;;;;;;;5035950;28;20393;-65
2023/05/19 11:27:14;;;;;;;;;;;;;;;;;;5032206;28;20065;-65
2023/05/19 11:29:41;;;;;;;12.60;12.00;;;;;;;;;;5031805;28;19977;-66
2023/05/19 11:32:06;;;;;;;12.68;12.07;;;;;;;;;;5032116;28;20028;-65
2023/05/19 11:34:32;;;;;;;12.40;11.80;;;;;;;;;;5031899;28;20067;-65
2023/05/19 11:36:58;;;;;;;12.80;12.20;;;;;;;;;;5033280;28;20107;-67
2023/05/19 11:39:24;;;;;;;12.50;11.90;;;;;;;;;;5026057;28;20022;-65
2023/05/19 11:41:50;;;;;;;11.40;10.90;;;;;;;;;;5033986;28;20021;-66
2023/05/19 11:44:15;;;;;;;12.05;11.45;;;;;;;;;;5032958;28;20466;-65
2023/05/19 11:46:40;;;;;;;12.60;12.00;;;;;;;;;;5032315;28;20025;-65
2023/05/19 11:49:06;;;;;;;12.50;11.90;;;;;;;;;;5028207;28;20101;-65
2023/05/19 11:51:32;;;;;;;12.68;12.07;;;;;;;;;;5019352;28;20021;-66
2023/05/19 11:53:57;;;;;;;12.63;12.02;;;;;;;;;;5031510;28;20025;-65
2023/05/19 11:56:22;;;;;;;12.90;12.30;;;;;;;;;;5031606;28;20025;-65
2023/05/19 11:58:48;;;;;;;13.25;12.60;;;;;;;;;;5031220;28;20020;-66
2023/05/19 12:01:13;;;;;;;12.27;11.68;;;;;;;;;;5033481;28;20365;-66
2023/05/19 12:03:39;;;;;;;12.73;12.13;;;;;;;;;;5032340;28;20053;-65
2023/05/19 12:06:05;;;;;;;12.48;11.88;;;;;;;;;;5031658;28;20538;-64
2023/05/19 12:08:30;;;;;;;13.35;12.68;;;;;;;;;;5032092;28;20025;-66
2023/05/19 12:10:56;;;;;;;12.15;11.55;;;;;;;;;;5031359;28;20099;-65
2023/05/19 12:13:21;;;;;;;13.02;12.43;;;;;;;;;;5031171;28;20460;-65
2023/05/19 12:15:49;;;;;;;12.10;11.50;;;;;;;;;;5030708;28;20032;-66
2023/05/19 12:18:14;;;;;;;12.55;11.95;;;;;;;;;;5030658;28;20511;-65
2023/05/19 12:20:39;;;;;;;12.40;11.80;;;;;;;;;;5031031;28;20101;-65
2023/05/19 12:23:05;;;;;;;12.55;11.95;;;;;;;;;;5030014;28;20048;-66
2023/05/19 12:25:30;;;;;;;12.55;11.95;;;;;;;;;;5031220;28;20104;-65
2023/05/19 12:27:56;;;;;;;12.43;11.82;;;;;;;;;;5030562;28;20025;-66
2023/05/19 12:30:28;;;;;;;12.20;11.60;;;;;;;;;;5032570;28;20111;-66
2023/05/19 12:32:56;;;;;;;12.55;11.95;;;;;;;;;;5030418;28;20104;-65
2023/05/19 12:35:24;;;;;;;12.35;11.75;;;;;;;;;;5023830;28;20093;-66
2023/05/19 12:37:50;;;;;;;12.40;11.80;;;;;;;;;;5030522;28;20064;-65
2023/05/19 12:40:15;;;;;;;12.82;12.23;;;;;;;;;;5031155;28;20021;-66
2023/05/19 12:42:43;;;;;;;13.00;12.40;;;;;;;;;;5030484;28;20125;-65
2023/05/19 12:45:09;;;;;;;12.55;11.95;;;;;;;;;;5034099;28;20056;-65
2023/05/19 12:47:35;;;;;;;12.60;12.00;;;;;;;;;;5031984;28;20017;-66
2023/05/19 12:50:02;;;;;;;11.95;11.40;;;;;;;;;;5030820;28;20023;-65
2023/05/19 12:52:28;;;;;;;12.45;11.85;;;;;;;;;;5029704;28;20052;-66
2023/05/19 12:54:58;;;;;;;12.73;12.13;;;;;;;;;;5030662;28;20648;-65
2023/05/19 12:57:24;;;;;;;12.90;12.30;;;;;;;;;;5032204;28;20033;-65
2023/05/19 12:59:49;;;;;;;11.85;11.35;;;;;;;;;;5033672;28;20385;-66
2023/05/19 13:02:15;;;;;;;12.60;12.00;;;;;;;;;;5031957;28;20092;-66
2023/05/19 13:04:41;;;;;;;12.75;12.15;;;;;;;;;;5030571;28;20128;-67
2023/05/19 13:07:06;;;;;;;13.20;12.60;;;;;;;;;;5031912;28;20113;-65
2023/05/19 13:09:34;;;;;;;12.48;11.88;;;;;;;;;;5029763;28;20025;-65
2023/05/19 13:11:59;;;;;;;11.93;11.43;;;;;;;;;;5030452;28;20029;-66
2023/05/19 13:14:24;;;;;;;12.45;11.85;;;;;;;;;;5030288;28;20060;-65
2023/05/19 13:16:51;;;;;;;12.50;11.90;;;;;;;;;;5030479;28;20108;-66
2023/05/19 13:19:18;;;;;;;15.27;14.48;;;;;;;;;;5017993;28;20262;-68
2023/05/19 13:21:46;;;;;;;15.98;15.07;;;;;;;;;;5019336;28;20031;-67
2023/05/19 13:24:11;;;;;;;14.52;13.75;;;;;;;;;;5021342;28;20033;-68
2023/05/19 13:26:36;;;;;;;12.50;11.90;;;;;;;;;;5020010;28;20030;-66
2023/05/19 13:29:02;;;;;;;13.57;12.88;;;;;;;;;;5046949;28;20045;-67
2023/05/19 13:31:27;;;;;;;13.45;12.77;;;;;;;;;;5023162;28;20033;-67
2023/05/19 13:33:53;;;;;;;13.95;13.25;;;;;;;;;;5025779;28;20115;-69
2023/05/19 13:36:18;;;;;;;13.73;13.03;;;;;;;;;;5023133;28;20029;-69
2023/05/19 13:38:43;;;;;;;13.30;12.60;;;;;;;;;;5023118;28;20292;-70
2023/05/19 13:41:08;;;;;;;12.50;11.90;;;;;;;;;;5028260;28;20017;-66
2023/05/19 13:43:34;;;;;;;13.02;12.43;;;;;;;;;;5025771;28;20028;-70
2023/05/19 13:45:59;;;;;;;13.70;13.00;;;;;;;;;;5026929;28;20437;-69
2023/05/19 13:48:24;;;;;;;13.15;12.50;;;;;;;;;;5025015;28;20029;-63
2023/05/19 13:50:53;;;;;;;13.52;12.82;;;;;;;;;;5029117;28;20033;-63
2023/05/19 13:53:18;;;;;;;12.77;12.18;;;;;;;;;;5026270;28;20041;-66
2023/05/19 13:55:43;;;;;;;13.48;12.77;;;;;;;;;;5031483;28;20083;-68
2023/05/19 13:58:09;;;;;;;13.57;12.88;;;;;;;;;;5032478;28;20035;-68
2023/05/19 14:00:35;;;;;;;12.70;12.10;;;;;;;;;;5031920;28;20055;-69
2023/05/19 14:03:01;;;;;;;13.35;12.65;;;;;;;;;;5032521;28;20057;-68
2023/05/19 14:05:27;;;;;;;13.63;12.93;;;;;;;;;;5032649;28;20416;-68
2023/05/19 14:07:53;;;;;;;12.70;12.10;;;;;;;;;;5036472;28;20022;-68
2023/05/19 14:10:18;;;;;;;12.80;12.20;;;;;;;;;;5034370;28;20028;-68
2023/05/19 14:12:43;;;;;;;12.60;12.00;;;;;;;;;;5033512;28;20033;-68